createdAt,value
2023-04-15T00:00:41.030Z,30.72
2023-04-15T00:04:42.393Z,30.96
2023-04-15T00:08:43.771Z,31.06
2023-04-15T00:12:45.072Z,31.51
2023-04-15T00:16:46.889Z,32.19
2023-04-15T00:20:48.738Z,32.11
2023-04-15T00:24:50.278Z,32.13
2023-04-15T00:28:51.766Z,32.27
2023-04-15T00:32:53.449Z,32.52
2023-04-15T00:36:54.914Z,32.52
2023-04-15T00:40:56.495Z,32.54
2023-04-15T00:44:57.821Z,33.18
2023-04-15T00:48:59.498Z,33.28
2023-04-15T00:53:01.240Z,33.35
2023-04-15T00:57:05.114Z,32.99
2023-04-15T01:01:06.692Z,33.51
2023-04-15T01:05:08.480Z,32.96
2023-04-15T01:09:11.011Z,32.93
2023-04-15T01:13:12.425Z,33.37
2023-04-15T01:17:14.449Z,33.54
2023-04-15T01:21:16.218Z,32.95
2023-04-15T01:25:19.730Z,33.51
2023-04-15T01:29:21.360Z,33.52
2023-04-15T01:33:23.199Z,33.61
2023-04-15T01:37:25.997Z,33.65
2023-04-15T01:41:28.251Z,33.41
2023-04-15T01:45:30.192Z,34.02
2023-04-15T01:49:32.001Z,34.23
2023-04-15T01:53:34.208Z,34.21
2023-04-15T01:57:35.725Z,34.51
2023-04-15T02:01:37.158Z,34.22
2023-04-15T02:05:38.563Z,34.25
2023-04-15T02:09:39.956Z,34.45
2023-04-15T02:13:41.693Z,34.20
2023-04-15T02:17:45.903Z,34.20
2023-04-15T02:21:47.387Z,34.19
2023-04-15T02:25:53.380Z,34.24
2023-04-15T02:29:55.719Z,34.20
2023-04-15T02:33:57.174Z,34.81
2023-04-15T02:37:58.562Z,34.36
2023-04-15T02:42:00.925Z,34.88
2023-04-15T02:46:02.394Z,34.41
2023-04-15T02:50:04.212Z,34.96
2023-04-15T02:54:05.519Z,34.97
2023-04-15T02:58:07.057Z,35.07
2023-04-15T03:02:08.520Z,35.40
2023-04-15T03:06:09.933Z,35.49
2023-04-15T03:10:11.431Z,36.00
2023-04-15T03:14:12.809Z,35.95
2023-04-15T03:18:14.408Z,35.63
2023-04-15T03:22:15.877Z,35.44
2023-04-15T03:26:28.627Z,35.80
2023-04-15T03:30:30.048Z,35.71
2023-04-15T03:34:31.476Z,35.83
2023-04-15T03:38:32.821Z,36.07
2023-04-15T03:42:34.131Z,36.04
2023-04-15T03:46:35.649Z,36.39
2023-04-15T03:50:36.984Z,36.18
2023-04-15T03:54:38.291Z,36.35
2023-04-15T03:58:39.772Z,36.23
2023-04-15T04:02:41.307Z,36.42
2023-04-15T04:06:43.004Z,36.52
2023-04-15T04:10:44.374Z,36.67
2023-04-15T04:14:45.867Z,36.74
2023-04-15T04:18:49.934Z,36.34
2023-04-15T04:22:51.822Z,36.75
2023-04-15T04:26:53.260Z,37.13
2023-04-15T04:30:56.267Z,37.11
2023-04-15T04:34:57.647Z,37.22
2023-04-15T04:39:00.365Z,38.04
2023-04-15T04:43:01.835Z,37.05
2023-04-15T04:47:03.186Z,37.29
2023-04-15T04:51:04.768Z,37.05
2023-04-15T04:55:06.593Z,37.40
2023-04-15T04:59:07.933Z,37.45
2023-04-15T05:03:09.640Z,38.47
2023-04-15T05:07:11.414Z,37.39
2023-04-15T05:11:12.968Z,37.29
2023-04-15T05:15:14.354Z,37.24
2023-04-15T05:19:15.921Z,37.54
2023-04-15T05:23:19.047Z,37.33
2023-04-15T05:27:20.500Z,37.20
2023-04-15T05:31:21.969Z,37.13
2023-04-15T05:35:23.350Z,39.55
2023-04-15T05:39:24.677Z,37.61
2023-04-15T05:43:26.229Z,36.94
2023-04-15T05:47:27.848Z,37.32
2023-04-15T05:51:29.352Z,37.10
2023-04-15T05:55:31.132Z,36.61
2023-04-15T05:59:32.820Z,36.43
2023-04-15T06:03:34.457Z,35.84
2023-04-15T06:07:36.746Z,34.72
2023-04-15T06:11:38.044Z,34.52
2023-04-15T06:15:39.452Z,34.42
2023-04-15T06:19:40.787Z,33.63
2023-04-15T06:23:42.459Z,33.58
2023-04-15T06:27:43.761Z,33.17
2023-04-15T06:31:46.938Z,33.33
2023-04-15T06:35:49.583Z,32.42
2023-04-15T06:39:50.966Z,32.33
2023-04-15T06:43:52.278Z,32.34
2023-04-15T06:47:53.708Z,31.72
2023-04-15T06:51:55.596Z,31.35
2023-04-15T06:55:56.910Z,30.88
2023-04-15T06:59:58.352Z,30.72
2023-04-15T07:03:59.763Z,29.36
2023-04-15T07:08:01.059Z,31.22
2023-04-15T07:12:02.703Z,29.16
2023-04-15T07:16:04.245Z,29.32
2023-04-15T07:20:06.190Z,28.76
2023-04-15T07:24:07.680Z,27.27
2023-04-15T07:28:09.001Z,27.28
2023-04-15T07:32:10.858Z,27.70
2023-04-15T07:36:12.806Z,30.53
2023-04-15T07:40:17.423Z,29.17
2023-04-15T07:44:18.776Z,29.21
2023-04-15T07:48:20.494Z,34.39
2023-04-15T07:52:22.281Z,30.08
2023-04-15T07:56:23.641Z,29.02
2023-04-15T08:00:25.002Z,29.67
2023-04-15T08:04:27.306Z,27.45
2023-04-15T08:08:28.729Z,28.38
2023-04-15T08:12:30.208Z,26.17
2023-04-15T08:16:31.944Z,25.82
2023-04-15T08:20:33.856Z,25.98
2023-04-15T08:24:35.180Z,25.44
2023-04-15T08:28:39.646Z,29.67
2023-04-15T08:32:42.654Z,30.63
2023-04-15T08:36:44.074Z,31.37
2023-04-15T08:40:46.144Z,27.50
2023-04-15T08:44:48.272Z,27.06
2023-04-15T08:48:50.117Z,25.35
2023-04-15T08:52:55.079Z,28.88
2023-04-15T08:56:58.452Z,31.75
2023-04-15T09:00:59.977Z,30.90
2023-04-15T09:05:01.579Z,27.88
2023-04-15T09:09:03.295Z,30.77
2023-04-15T09:13:04.878Z,28.21
2023-04-15T09:17:09.994Z,24.74
2023-04-15T09:21:14.135Z,26.29
2023-04-15T09:25:15.638Z,24.19
2023-04-15T09:29:18.432Z,29.94
2023-04-15T09:33:19.884Z,30.40
2023-04-15T09:37:35.597Z,27.14
2023-04-15T09:41:37.011Z,26.50
2023-04-15T09:45:38.439Z,25.04
2023-04-15T09:49:56.067Z,24.28
2023-04-15T09:53:57.716Z,23.00
2023-04-15T09:57:59.191Z,20.50
2023-04-15T10:02:00.988Z,20.66
2023-04-15T10:06:03.478Z,24.28
2023-04-15T10:10:05.847Z,21.99
2023-04-15T10:14:08.465Z,21.44
2023-04-15T10:18:11.221Z,23.41
2023-04-15T10:22:14.334Z,22.72
2023-04-15T10:26:17.579Z,21.50
2023-04-15T10:30:19.300Z,24.42
2023-04-15T10:34:21.627Z,27.10
2023-04-15T10:38:43.864Z,22.73
2023-04-15T10:42:45.224Z,23.20
2023-04-15T10:46:47.217Z,22.79
2023-04-15T10:50:58.098Z,25.85
2023-04-15T10:55:23.672Z,27.03
2023-04-15T10:59:25.297Z,23.86
2023-04-15T11:03:42.551Z,25.96
2023-04-15T11:07:44.072Z,28.39
2023-04-15T11:12:10.456Z,26.94
2023-04-15T11:16:11.887Z,26.24
2023-04-15T11:20:16.021Z,24.73
2023-04-15T11:24:27.152Z,25.54
2023-04-15T11:28:30.315Z,26.48
2023-04-15T11:32:31.813Z,26.26
2023-04-15T11:36:33.269Z,26.64
2023-04-15T11:40:35.396Z,27.65
2023-04-15T11:44:36.772Z,30.18
2023-04-15T11:48:42.997Z,26.77
2023-04-15T11:52:53.870Z,29.14
2023-04-15T11:56:56.606Z,31.17
2023-04-15T12:01:00.405Z,28.16
2023-04-15T12:05:06.500Z,27.90
2023-04-15T12:09:12.405Z,32.47
2023-04-15T12:13:14.628Z,30.25
2023-04-15T12:17:16.594Z,31.06
2023-04-15T12:21:21.162Z,33.60
2023-04-15T12:25:34.328Z,31.32
2023-04-15T12:29:37.258Z,31.80
2023-04-15T12:33:39.181Z,32.75
2023-04-15T12:37:40.531Z,31.75
2023-04-15T12:41:42.043Z,35.05
2023-04-15T12:45:43.362Z,34.18
2023-04-15T12:49:44.737Z,35.44
2023-04-15T12:53:47.719Z,32.47
2023-04-15T12:57:49.199Z,33.59
2023-04-15T13:01:52.228Z,36.22
2023-04-15T13:05:53.878Z,36.13
2023-04-15T13:09:55.522Z,34.92
2023-04-15T13:13:57.578Z,33.90
2023-04-15T13:17:59.019Z,34.63
2023-04-15T13:22:00.369Z,37.05
2023-04-15T13:26:01.714Z,36.05
2023-04-15T13:30:03.921Z,34.90
2023-04-15T13:34:05.521Z,36.93
2023-04-15T13:38:07.023Z,35.09
2023-04-15T13:42:08.389Z,35.85
2023-04-15T13:46:09.874Z,36.75
2023-04-15T13:50:11.446Z,37.35
2023-04-15T13:54:12.820Z,36.23
2023-04-15T13:58:14.253Z,36.00
2023-04-15T14:02:15.737Z,34.56
2023-04-15T14:06:17.166Z,33.95
2023-04-15T14:10:18.698Z,35.55
2023-04-15T14:14:20.087Z,34.86
2023-04-15T14:18:21.681Z,34.27
2023-04-15T14:22:23.149Z,35.75
2023-04-15T14:26:24.412Z,36.32
2023-04-15T14:30:25.783Z,33.28
2023-04-15T14:34:27.165Z,33.64
2023-04-15T14:38:28.832Z,34.44
2023-04-15T14:42:30.152Z,35.56
2023-04-15T14:46:31.601Z,35.64
2023-04-15T14:50:32.973Z,36.54
2023-04-15T14:54:34.355Z,37.13
2023-04-15T14:58:35.805Z,37.42
2023-04-15T15:02:40.296Z,36.89
2023-04-15T15:06:42.397Z,35.77
2023-04-15T15:10:49.247Z,35.04
2023-04-15T15:14:51.375Z,35.50
2023-04-15T15:18:52.830Z,36.41
2023-04-15T15:22:54.339Z,37.23
2023-04-15T15:26:55.709Z,38.18
2023-04-15T15:30:57.157Z,38.10
2023-04-15T15:34:58.461Z,38.01
2023-04-15T15:38:59.990Z,38.38
2023-04-15T15:43:01.375Z,39.28
2023-04-15T15:47:02.798Z,39.51
2023-04-15T15:51:04.592Z,39.40
2023-04-15T15:55:06.372Z,41.12
2023-04-15T15:59:07.710Z,42.62
2023-04-15T16:03:09.404Z,40.35
2023-04-15T16:07:11.878Z,41.25
2023-04-15T16:11:13.274Z,40.01
2023-04-15T16:15:14.804Z,40.26
2023-04-15T16:19:16.452Z,41.87
2023-04-15T16:23:19.523Z,40.17
2023-04-15T16:27:20.953Z,40.98
2023-04-15T16:31:22.428Z,42.16
2023-04-15T16:35:23.829Z,42.54
2023-04-15T16:39:25.250Z,41.65
2023-04-15T16:43:27.264Z,43.28
2023-04-15T16:47:28.609Z,42.87
2023-04-15T16:51:31.486Z,42.65
2023-04-15T16:55:32.989Z,42.18
2023-04-15T16:59:34.278Z,42.20
2023-04-15T17:03:36.816Z,41.46
2023-04-15T17:07:38.323Z,42.54
2023-04-15T17:11:40.638Z,41.21
2023-04-15T17:15:42.100Z,42.51
2023-04-15T17:19:43.496Z,41.49
2023-04-15T17:23:44.906Z,41.37
2023-04-15T17:27:46.337Z,41.05
2023-04-15T17:31:47.706Z,41.68
2023-04-15T17:35:49.108Z,41.36
2023-04-15T17:39:50.491Z,40.85
2023-04-15T17:43:51.849Z,41.21
2023-04-15T17:47:56.240Z,41.32
2023-04-15T17:51:57.606Z,40.74
2023-04-15T17:55:59.147Z,40.20
2023-04-15T18:00:00.739Z,41.42
2023-04-15T18:04:02.466Z,41.26
2023-04-15T18:08:04.672Z,41.09
2023-04-15T18:12:07.552Z,41.03
2023-04-15T18:16:09.164Z,41.00
2023-04-15T18:20:11.108Z,41.17
2023-04-15T18:24:12.424Z,42.08
2023-04-15T18:28:14.002Z,41.68
2023-04-15T18:32:15.404Z,43.78
2023-04-15T18:36:16.830Z,45.18
2023-04-15T18:40:18.360Z,43.97
2023-04-15T18:44:20.273Z,43.35
2023-04-15T18:48:21.757Z,43.98
2023-04-15T18:52:23.093Z,44.61
2023-04-15T18:56:24.537Z,44.44
2023-04-15T19:00:26.034Z,44.34
2023-04-15T19:04:29.370Z,45.18
2023-04-15T19:08:31.098Z,45.06
2023-04-15T19:12:32.588Z,44.57
2023-04-15T19:16:33.998Z,46.36
2023-04-15T19:20:38.443Z,45.97
2023-04-15T19:24:41.246Z,47.28
2023-04-15T19:28:42.673Z,47.97
2023-04-15T19:32:44.013Z,47.78
2023-04-15T19:36:45.369Z,47.78
2023-04-15T19:40:46.748Z,47.53
2023-04-15T19:44:50.764Z,47.02
2023-04-15T19:48:53.051Z,47.23
2023-04-15T19:52:54.517Z,48.20
2023-04-15T19:56:56.433Z,47.38
2023-04-15T20:00:58.100Z,47.39
2023-04-15T20:04:59.650Z,47.63
2023-04-15T20:09:01.069Z,47.53
2023-04-15T20:13:02.487Z,48.00
2023-04-15T20:17:03.920Z,48.13
2023-04-15T20:21:05.461Z,48.65
2023-04-15T20:25:07.533Z,48.26
2023-04-15T20:29:08.885Z,47.69
2023-04-15T20:33:10.324Z,47.24
2023-04-15T20:37:14.885Z,48.55
2023-04-15T20:41:16.340Z,48.03
2023-04-15T20:45:17.795Z,48.00
2023-04-15T20:49:19.098Z,47.89
2023-04-15T20:53:20.491Z,47.99
2023-04-15T20:57:21.986Z,48.17
2023-04-15T21:01:23.479Z,47.25
2023-04-15T21:05:24.959Z,48.66
2023-04-15T21:09:26.281Z,48.29
2023-04-15T21:13:27.683Z,48.82
2023-04-15T21:17:29.088Z,48.11
2023-04-15T21:21:31.885Z,48.16
2023-04-15T21:25:33.214Z,48.61
2023-04-15T21:29:34.600Z,49.67
2023-04-15T21:33:36.236Z,49.33
2023-04-15T21:37:37.914Z,48.39
2023-04-15T21:41:39.284Z,48.03
2023-04-15T21:45:42.912Z,47.81
2023-04-15T21:50:04.578Z,47.51
2023-04-15T21:54:05.935Z,47.03
2023-04-15T21:58:07.326Z,48.30
2023-04-15T22:02:08.734Z,47.73
2023-04-15T22:06:10.265Z,49.58
2023-04-15T22:10:11.726Z,48.14
2023-04-15T22:14:13.149Z,48.66
2023-04-15T22:18:14.565Z,47.89
2023-04-15T22:22:16.115Z,48.97
2023-04-15T22:26:20.220Z,48.27
2023-04-15T22:30:21.697Z,49.13
2023-04-15T22:34:23.084Z,48.05
2023-04-15T22:38:24.888Z,48.07
2023-04-15T22:42:26.370Z,47.92
2023-04-15T22:46:27.708Z,47.85
2023-04-15T22:50:29.122Z,48.26
2023-04-15T22:54:30.595Z,48.82
2023-04-15T22:58:32.091Z,47.85
2023-04-15T23:02:34.659Z,47.72
2023-04-15T23:06:36.388Z,48.15
2023-04-15T23:10:40.008Z,47.97
2023-04-15T23:14:41.484Z,47.97
2023-04-15T23:18:42.879Z,48.69
2023-04-15T23:22:44.290Z,47.69
2023-04-15T23:26:45.623Z,47.79
2023-04-15T23:30:49.283Z,47.91
2023-04-15T23:34:52.121Z,48.23
2023-04-15T23:38:53.431Z,47.83
2023-04-15T23:42:54.844Z,48.42
2023-04-15T23:46:56.264Z,47.95
2023-04-15T23:50:57.689Z,48.02
2023-04-15T23:55:00.157Z,47.14
2023-04-15T23:59:01.573Z,47.88
